sensor_id;sensor_type;location;lat;lon;timestamp;pressure;altitude;pressure_sealevel;temperature;humidity
49194;BME280;35029;50.804;12.866;2024-03-08T00:01:56;98096.31;;;-0.06;93.95
49194;BME280;35029;50.804;12.866;2024-03-08T00:04:21;98096.66;;;0.01;94.07
49194;BME280;35029;50.804;12.866;2024-03-08T00:06:47;98087.56;;;-0.05;92.46
49194;BME280;35029;50.804;12.866;2024-03-08T00:09:13;98106.38;;;-0.02;92.84
49194;BME280;35029;50.804;12.866;2024-03-08T00:11:39;98095.84;;;-0.11;93.33
49194;BME280;35029;50.804;12.866;2024-03-08T00:14:05;98103.53;;;-0.10;92.88
49194;BME280;35029;50.804;12.866;2024-03-08T00:16:32;98107.56;;;-0.06;93.73
49194;BME280;35029;50.804;12.866;2024-03-08T00:18:59;98102.34;;;-0.06;93.00
49194;BME280;35029;50.804;12.866;2024-03-08T00:21:24;98082.09;;;-0.25;93.28
49194;BME280;35029;50.804;12.866;2024-03-08T00:23:50;98067.16;;;-0.45;93.37
49194;BME280;35029;50.804;12.866;2024-03-08T00:26:15;98103.78;;;-0.24;93.14
49194;BME280;35029;50.804;12.866;2024-03-08T00:28:41;98091.81;;;-0.38;93.05
49194;BME280;35029;50.804;12.866;2024-03-08T00:31:06;98098.66;;;-0.37;93.84
49194;BME280;35029;50.804;12.866;2024-03-08T00:33:32;98100.09;;;-0.33;93.95
49194;BME280;35029;50.804;12.866;2024-03-08T00:35:58;98098.66;;;-0.37;93.58
49194;BME280;35029;50.804;12.866;2024-03-08T00:38:23;98062.91;;;-0.58;94.63
49194;BME280;35029;50.804;12.866;2024-03-08T00:40:49;98098.66;;;-0.37;94.23
49194;BME280;35029;50.804;12.866;2024-03-08T00:43:14;98068.34;;;-0.61;94.64
49194;BME280;35029;50.804;12.866;2024-03-08T00:45:41;98096.31;;;-0.52;95.67
49194;BME280;35029;50.804;12.866;2024-03-08T00:48:08;98091.31;;;-0.55;95.83
49194;BME280;35029;50.804;12.866;2024-03-08T00:50:34;98065.00;;;-0.74;95.92
49194;BME280;35029;50.804;12.866;2024-03-08T00:53:00;98092.72;;;-0.51;96.82
49194;BME280;35029;50.804;12.866;2024-03-08T00:55:26;98066.94;;;-0.54;96.96
49194;BME280;35029;50.804;12.866;2024-03-08T00:57:51;98088.13;;;-0.47;95.35
49194;BME280;35029;50.804;12.866;2024-03-08T01:00:19;98084.34;;;-0.54;95.64
49194;BME280;35029;50.804;12.866;2024-03-08T01:02:46;98081.13;;;-0.58;96.21
49194;BME280;35029;50.804;12.866;2024-03-08T01:05:11;98076.53;;;-0.54;96.93
49194;BME280;35029;50.804;12.866;2024-03-08T01:07:37;98073.91;;;-0.54;96.93
49194;BME280;35029;50.804;12.866;2024-03-08T01:10:03;98041.59;;;-0.74;96.87
49194;BME280;35029;50.804;12.866;2024-03-08T01:12:29;98064.31;;;-0.54;96.75
49194;BME280;35029;50.804;12.866;2024-03-08T01:14:55;98055.81;;;-0.56;97.12
49194;BME280;35029;50.804;12.866;2024-03-08T01:17:23;98064.44;;;-0.55;97.13
49194;BME280;35029;50.804;12.866;2024-03-08T01:19:49;98061.25;;;-0.47;98.81
49194;BME280;35029;50.804;12.866;2024-03-08T01:22:14;98052.72;;;-0.49;99.77
49194;BME280;35029;50.804;12.866;2024-03-08T01:24:40;98056.28;;;-0.39;100.00
49194;BME280;35029;50.804;12.866;2024-03-08T01:27:05;98027.03;;;-0.43;100.00
49194;BME280;35029;50.804;12.866;2024-03-08T01:29:34;98017.69;;;-0.45;99.75
49194;BME280;35029;50.804;12.866;2024-03-08T01:32:01;98049.28;;;-0.27;100.00
49194;BME280;35029;50.804;12.866;2024-03-08T01:34:29;98046.94;;;-0.19;100.00
49194;BME280;35029;50.804;12.866;2024-03-08T01:36:55;98030.47;;;-0.20;100.00
49194;BME280;35029;50.804;12.866;2024-03-08T01:39:23;98035.06;;;-0.12;100.00
49194;BME280;35029;50.804;12.866;2024-03-08T01:41:49;98034.34;;;-0.03;100.00
49194;BME280;35029;50.804;12.866;2024-03-08T01:44:14;98022.63;;;-0.08;100.00
49194;BME280;35029;50.804;12.866;2024-03-08T01:46:44;98025.81;;;-0.05;100.00
49194;BME280;35029;50.804;12.866;2024-03-08T01:49:11;98026.16;;;0.02;100.00
49194;BME280;35029;50.804;12.866;2024-03-08T01:51:37;98009.94;;;-0.02;100.00
49194;BME280;35029;50.804;12.866;2024-03-08T01:54:05;98012.53;;;0.10;100.00
49194;BME280;35029;50.804;12.866;2024-03-08T01:56:30;98006.25;;;0.12;100.00
49194;BME280;35029;50.804;12.866;2024-03-08T01:58:58;98011.41;;;0.24;100.00
49194;BME280;35029;50.804;12.866;2024-03-08T02:01:25;98004.88;;;0.29;100.00
49194;BME280;35029;50.804;12.866;2024-03-08T02:03:50;98014.84;;;0.24;100.00
49194;BME280;35029;50.804;12.866;2024-03-08T02:06:16;97981.13;;;0.11;100.00
49194;BME280;35029;50.804;12.866;2024-03-08T02:08:45;97980.47;;;0.30;100.00
49194;BME280;35029;50.804;12.866;2024-03-08T02:11:12;97993.84;;;0.37;100.00
49194;BME280;35029;50.804;12.866;2024-03-08T02:13:38;98005.16;;;0.47;100.00
49194;BME280;35029;50.804;12.866;2024-03-08T02:16:04;97995.69;;;0.46;100.00
49194;BME280;35029;50.804;12.866;2024-03-08T02:18:34;97980.94;;;0.36;100.00
49194;BME280;35029;50.804;12.866;2024-03-08T02:21:02;97992.50;;;0.43;100.00
49194;BME280;35029;50.804;12.866;2024-03-08T02:23:28;97996.66;;;0.45;100.00
49194;BME280;35029;50.804;12.866;2024-03-08T02:25:55;97995.31;;;0.51;100.00
49194;BME280;35029;50.804;12.866;2024-03-08T02:28:22;97994.25;;;0.54;100.00
49194;BME280;35029;50.804;12.866;2024-03-08T02:30:49;97991.38;;;0.57;100.00
49194;BME280;35029;50.804;12.866;2024-03-08T02:33:17;97967.25;;;0.43;100.00
49194;BME280;35029;50.804;12.866;2024-03-08T02:35:44;97989.91;;;0.64;100.00
49194;BME280;35029;50.804;12.866;2024-03-08T02:38:13;97986.59;;;0.62;100.00
49194;BME280;35029;50.804;12.866;2024-03-08T02:40:51;97993.72;;;0.60;100.00
49194;BME280;35029;50.804;12.866;2024-03-08T02:43:18;97982.84;;;0.55;100.00
49194;BME280;35029;50.804;12.866;2024-03-08T02:45:44;97989.50;;;0.47;100.00
49194;BME280;35029;50.804;12.866;2024-03-08T02:48:14;97990.47;;;0.46;100.00
49194;BME280;35029;50.804;12.866;2024-03-08T02:50:40;97992.38;;;0.44;100.00
49194;BME280;35029;50.804;12.866;2024-03-08T02:53:08;97986.97;;;0.36;100.00
49194;BME280;35029;50.804;12.866;2024-03-08T02:55:33;97988.44;;;0.17;100.00
49194;BME280;35029;50.804;12.866;2024-03-08T02:58:02;97986.81;;;0.05;100.00
49194;BME280;35029;50.804;12.866;2024-03-08T03:00:29;97981.25;;;-0.02;100.00
49194;BME280;35029;50.804;12.866;2024-03-08T03:02:58;97980.81;;;-0.07;100.00
49194;BME280;35029;50.804;12.866;2024-03-08T03:05:24;97979.06;;;-0.18;100.00
49194;BME280;35029;50.804;12.866;2024-03-08T03:07:50;97980.47;;;-0.13;100.00
49194;BME280;35029;50.804;12.866;2024-03-08T03:10:17;97978.34;;;-0.20;100.00
49194;BME280;35029;50.804;12.866;2024-03-08T03:12:43;97971.47;;;-0.21;100.00
49194;BME280;35029;50.804;12.866;2024-03-08T03:15:10;97963.81;;;-0.33;100.00
49194;BME280;35029;50.804;12.866;2024-03-08T03:17:37;97978.47;;;-0.21;100.00
49194;BME280;35029;50.804;12.866;2024-03-08T03:20:05;97971.50;;;-0.32;100.00
49194;BME280;35029;50.804;12.866;2024-03-08T03:22:36;97970.34;;;-0.39;100.00
49194;BME280;35029;50.804;12.866;2024-03-08T03:25:03;97969.16;;;-0.35;100.00
49194;BME280;35029;50.804;12.866;2024-03-08T03:27:29;97965.69;;;-0.36;100.00
49194;BME280;35029;50.804;12.866;2024-03-08T03:29:56;97964.06;;;-0.37;100.00
49194;BME280;35029;50.804;12.866;2024-03-08T03:32:23;97958.25;;;-0.40;100.00
49194;BME280;35029;50.804;12.866;2024-03-08T03:34:49;97965.69;;;-0.36;100.00
49194;BME280;35029;50.804;12.866;2024-03-08T03:37:19;97960.38;;;-0.34;100.00
49194;BME280;35029;50.804;12.866;2024-03-08T03:39:45;97960.13;;;-0.31;100.00
49194;BME280;35029;50.804;12.866;2024-03-08T03:42:18;97965.69;;;-0.24;100.00
49194;BME280;35029;50.804;12.866;2024-03-08T03:44:47;97966.94;;;-0.07;100.00
49194;BME280;35029;50.804;12.866;2024-03-08T03:47:13;97951.94;;;-0.15;100.00
49194;BME280;35029;50.804;12.866;2024-03-08T03:49:43;97959.81;;;0.06;100.00
49194;BME280;35029;50.804;12.866;2024-03-08T03:52:09;97969.97;;;0.09;100.00
49194;BME280;35029;50.804;12.866;2024-03-08T03:54:35;97969.88;;;-0.01;100.00
49194;BME280;35029;50.804;12.866;2024-03-08T03:57:01;97958.22;;;-0.18;100.00
49194;BME280;35029;50.804;12.866;2024-03-08T03:59:28;97954.91;;;-0.20;100.00
49194;BME280;35029;50.804;12.866;2024-03-08T04:01:54;97931.25;;;-0.51;100.00
49194;BME280;35029;50.804;12.866;2024-03-08T04:04:21;97954.81;;;-0.29;100.00
49194;BME280;35029;50.804;12.866;2024-03-08T04:06:46;97959.66;;;-0.36;100.00
49194;BME280;35029;50.804;12.866;2024-03-08T04:09:12;97961.47;;;-0.37;100.00
49194;BME280;35029;50.804;12.866;2024-03-08T04:11:38;97958.38;;;-0.42;100.00
49194;BME280;35029;50.804;12.866;2024-03-08T04:14:04;97910.47;;;-0.73;100.00
49194;BME280;35029;50.804;12.866;2024-03-08T04:16:31;97946.66;;;-0.47;100.00
49194;BME280;35029;50.804;12.866;2024-03-08T04:18:57;97952.09;;;-0.51;100.00
49194;BME280;35029;50.804;12.866;2024-03-08T04:21:23;97945.16;;;-0.61;100.00
49194;BME280;35029;50.804;12.866;2024-03-08T04:23:48;97941.81;;;-0.63;100.00
49194;BME280;35029;50.804;12.866;2024-03-08T04:26:14;97946.91;;;-0.62;100.00
49194;BME280;35029;50.804;12.866;2024-03-08T04:28:39;97931.31;;;-0.73;100.00
49194;BME280;35029;50.804;12.866;2024-03-08T04:31:05;97941.69;;;-0.62;100.00
49194;BME280;35029;50.804;12.866;2024-03-08T04:33:32;97926.09;;;-0.73;100.00
49194;BME280;35029;50.804;12.866;2024-03-08T04:35:57;97932.38;;;-0.76;100.00
49194;BME280;35029;50.804;12.866;2024-03-08T04:38:23;97936.00;;;-0.67;100.00
49194;BME280;35029;50.804;12.866;2024-03-08T04:40:50;97941.34;;;-0.69;100.00
49194;BME280;35029;50.804;12.866;2024-03-08T04:43:17;97911.91;;;-0.92;100.00
49194;BME280;35029;50.804;12.866;2024-03-08T04:45:44;97930.94;;;-0.80;100.00
49194;BME280;35029;50.804;12.866;2024-03-08T04:48:10;97932.00;;;-0.82;100.00
49194;BME280;35029;50.804;12.866;2024-03-08T04:50:36;97940.06;;;-0.86;100.00
49194;BME280;35029;50.804;12.866;2024-03-08T04:53:03;97920.06;;;-0.96;100.00
49194;BME280;35029;50.804;12.866;2024-03-08T04:55:29;97943.03;;;-0.79;100.00
49194;BME280;35029;50.804;12.866;2024-03-08T04:57:55;97921.25;;;-0.89;100.00
49194;BME280;35029;50.804;12.866;2024-03-08T05:00:20;97912.75;;;-0.91;100.00
49194;BME280;35029;50.804;12.866;2024-03-08T05:02:46;97914.13;;;-0.98;100.00
49194;BME280;35029;50.804;12.866;2024-03-08T05:05:12;97934.38;;;-0.91;100.00
49194;BME280;35029;50.804;12.866;2024-03-08T05:07:38;97933.56;;;-0.91;100.00
49194;BME280;35029;50.804;12.866;2024-03-08T05:10:06;97924.78;;;-0.90;100.00
49194;BME280;35029;50.804;12.866;2024-03-08T05:12:32;97922.56;;;-0.95;100.00
49194;BME280;35029;50.804;12.866;2024-03-08T05:14:58;97925.97;;;-0.94;100.00
49194;BME280;35029;50.804;12.866;2024-03-08T05:17:23;97922.31;;;-0.92;100.00
49194;BME280;35029;50.804;12.866;2024-03-08T05:19:50;97924.34;;;-0.95;100.00
49194;BME280;35029;50.804;12.866;2024-03-08T05:22:16;97919.13;;;-0.95;100.00
49194;BME280;35029;50.804;12.866;2024-03-08T05:24:41;97918.78;;;-1.02;99.85
49194;BME280;35029;50.804;12.866;2024-03-08T05:27:08;97886.59;;;-1.24;100.00
49194;BME280;35029;50.804;12.866;2024-03-08T05:29:33;97922.19;;;-1.02;100.00
49194;BME280;35029;50.804;12.866;2024-03-08T05:31:59;97917.00;;;-1.02;100.00
49194;BME280;35029;50.804;12.866;2024-03-08T05:34:24;97887.16;;;-1.20;100.00
49194;BME280;35029;50.804;12.866;2024-03-08T05:36:51;97925.03;;;-1.05;100.00
49194;BME280;35029;50.804;12.866;2024-03-08T05:39:18;97910.50;;;-1.18;100.00
49194;BME280;35029;50.804;12.866;2024-03-08T05:41:44;97923.00;;;-1.12;100.00
49194;BME280;35029;50.804;12.866;2024-03-08T05:44:11;97922.06;;;-1.11;100.00
49194;BME280;35029;50.804;12.866;2024-03-08T05:46:37;97895.69;;;-1.29;100.00
49194;BME280;35029;50.804;12.866;2024-03-08T05:49:03;97918.75;;;-1.13;100.00
49194;BME280;35029;50.804;12.866;2024-03-08T05:51:34;97913.09;;;-1.07;100.00
49194;BME280;35029;50.804;12.866;2024-03-08T05:54:04;97907.16;;;-1.09;100.00
49194;BME280;35029;50.804;12.866;2024-03-08T05:56:31;97891.78;;;-1.12;100.00
49194;BME280;35029;50.804;12.866;2024-03-08T05:58:57;97912.13;;;-0.95;100.00
49194;BME280;35029;50.804;12.866;2024-03-08T06:01:26;97909.53;;;-0.95;100.00
49194;BME280;35029;50.804;12.866;2024-03-08T06:03:55;97891.91;;;-1.03;100.00
49194;BME280;35029;50.804;12.866;2024-03-08T06:06:25;97904.22;;;-0.93;100.00
49194;BME280;35029;50.804;12.866;2024-03-08T06:08:52;97915.19;;;-1.01;100.00
49194;BME280;35029;50.804;12.866;2024-03-08T06:11:18;97896.31;;;-1.14;100.00
49194;BME280;35029;50.804;12.866;2024-03-08T06:13:45;97909.06;;;-1.11;100.00
49194;BME280;35029;50.804;12.866;2024-03-08T06:16:10;97905.03;;;-1.04;100.00
49194;BME280;35029;50.804;12.866;2024-03-08T06:18:37;97906.34;;;-0.98;100.00
49194;BME280;35029;50.804;12.866;2024-03-08T06:21:06;97909.41;;;-0.93;100.00
49194;BME280;35029;50.804;12.866;2024-03-08T06:23:33;97904.81;;;-0.90;100.00
49194;BME280;35029;50.804;12.866;2024-03-08T06:25:59;97903.63;;;-0.86;100.00
49194;BME280;35029;50.804;12.866;2024-03-08T06:28:25;97906.94;;;-0.83;100.00
49194;BME280;35029;50.804;12.866;2024-03-08T06:30:51;97898.91;;;-0.80;100.00
49194;BME280;35029;50.804;12.866;2024-03-08T06:33:17;97911.66;;;-0.77;100.00
49194;BME280;35029;50.804;12.866;2024-03-08T06:35:43;97902.53;;;-0.72;100.00
49194;BME280;35029;50.804;12.866;2024-03-08T06:38:09;97894.28;;;-0.65;100.00
49194;BME280;35029;50.804;12.866;2024-03-08T06:40:35;97902.31;;;-0.57;100.00
49194;BME280;35029;50.804;12.866;2024-03-08T06:43:00;97898.81;;;-0.46;100.00
49194;BME280;35029;50.804;12.866;2024-03-08T06:45:26;97893.59;;;-0.35;100.00
49194;BME280;35029;50.804;12.866;2024-03-08T06:47:52;97883.84;;;-0.22;100.00
49194;BME280;35029;50.804;12.866;2024-03-08T06:50:17;97889.50;;;0.16;100.00
49194;BME280;35029;50.804;12.866;2024-03-08T06:52:44;97895.69;;;0.36;100.00
49194;BME280;35029;50.804;12.866;2024-03-08T06:55:12;97886.34;;;0.55;100.00
49194;BME280;35029;50.804;12.866;2024-03-08T06:57:39;97878.28;;;0.67;100.00
49194;BME280;35029;50.804;12.866;2024-03-08T07:00:07;97888.78;;;0.77;100.00
49194;BME280;35029;50.804;12.866;2024-03-08T07:02:35;97880.19;;;0.87;100.00
49194;BME280;35029;50.804;12.866;2024-03-08T07:05:01;97881.72;;;0.99;100.00
49194;BME280;35029;50.804;12.866;2024-03-08T07:07:27;97882.72;;;1.08;100.00
49194;BME280;35029;50.804;12.866;2024-03-08T07:09:52;97869.72;;;1.17;100.00
49194;BME280;35029;50.804;12.866;2024-03-08T07:12:18;97878.41;;;1.28;100.00
49194;BME280;35029;50.804;12.866;2024-03-08T07:14:46;97881.03;;;1.38;100.00
49194;BME280;35029;50.804;12.866;2024-03-08T07:17:12;97873.25;;;1.47;100.00
49194;BME280;35029;50.804;12.866;2024-03-08T07:19:38;97842.72;;;1.48;100.00
49194;BME280;35029;50.804;12.866;2024-03-08T07:22:04;97846.03;;;1.60;100.00
49194;BME280;35029;50.804;12.866;2024-03-08T07:24:35;97841.34;;;1.63;100.00
49194;BME280;35029;50.804;12.866;2024-03-08T07:27:30;97885.66;;;1.94;100.00
49194;BME280;35029;50.804;12.866;2024-03-08T07:29:55;97886.50;;;2.05;100.00
49194;BME280;35029;50.804;12.866;2024-03-08T07:32:21;97885.41;;;2.17;100.00
49194;BME280;35029;50.804;12.866;2024-03-08T07:34:52;97880.97;;;2.27;100.00
49194;BME280;35029;50.804;12.866;2024-03-08T07:37:18;97871.47;;;2.36;100.00
49194;BME280;35029;50.804;12.866;2024-03-08T07:39:46;97876.84;;;2.44;99.17
49194;BME280;35029;50.804;12.866;2024-03-08T07:42:12;97875.84;;;2.55;98.92
49194;BME280;35029;50.804;12.866;2024-03-08T07:44:38;97869.38;;;2.59;97.84
49194;BME280;35029;50.804;12.866;2024-03-08T07:47:04;97871.41;;;2.65;99.28
49194;BME280;35029;50.804;12.866;2024-03-08T07:49:31;97861.47;;;2.69;98.79
49194;BME280;35029;50.804;12.866;2024-03-08T07:51:57;97853.88;;;2.76;98.57
49194;BME280;35029;50.804;12.866;2024-03-08T07:54:23;97863.47;;;2.85;95.96
49194;BME280;35029;50.804;12.866;2024-03-08T07:56:51;97802.69;;;2.63;95.25
49194;BME280;35029;50.804;12.866;2024-03-08T07:59:18;97870.38;;;3.24;95.34
49194;BME280;35029;50.804;12.866;2024-03-08T08:01:44;97876.47;;;3.42;94.12
49194;BME280;35029;50.804;12.866;2024-03-08T08:04:12;97878.91;;;3.53;93.67
49194;BME280;35029;50.804;12.866;2024-03-08T08:06:40;97875.09;;;3.66;92.83
49194;BME280;35029;50.804;12.866;2024-03-08T08:09:09;97867.31;;;3.74;91.07
49194;BME280;35029;50.804;12.866;2024-03-08T08:11:42;97862.69;;;3.86;90.74
49194;BME280;35029;50.804;12.866;2024-03-08T08:14:09;97863.03;;;3.91;89.73
49194;BME280;35029;50.804;12.866;2024-03-08T08:16:35;97859.50;;;4.00;88.86
49194;BME280;35029;50.804;12.866;2024-03-08T08:19:06;97856.31;;;4.06;88.60
49194;BME280;35029;50.804;12.866;2024-03-08T08:21:52;97865.75;;;4.17;87.53
49194;BME280;35029;50.804;12.866;2024-03-08T08:24:18;97856.81;;;4.28;88.06
49194;BME280;35029;50.804;12.866;2024-03-08T08:26:46;97854.09;;;4.38;86.61
49194;BME280;35029;50.804;12.866;2024-03-08T08:29:11;97854.78;;;4.48;85.37
49194;BME280;35029;50.804;12.866;2024-03-08T08:31:37;97845.34;;;4.55;84.95
49194;BME280;35029;50.804;12.866;2024-03-08T08:34:02;97850.94;;;4.61;82.12
49194;BME280;35029;50.804;12.866;2024-03-08T08:36:28;97845.13;;;4.75;81.59
49194;BME280;35029;50.804;12.866;2024-03-08T08:38:55;97842.00;;;4.80;81.57
49194;BME280;35029;50.804;12.866;2024-03-08T08:41:21;97840.88;;;4.82;80.80
49194;BME280;35029;50.804;12.866;2024-03-08T08:43:48;97844.22;;;4.93;80.35
49194;BME280;35029;50.804;12.866;2024-03-08T08:46:18;97834.22;;;4.96;80.27
49194;BME280;35029;50.804;12.866;2024-03-08T08:48:44;97823.06;;;4.94;80.11
49194;BME280;35029;50.804;12.866;2024-03-08T08:51:11;97837.72;;;5.05;80.61
49194;BME280;35029;50.804;12.866;2024-03-08T08:53:41;97833.00;;;5.17;80.39
49194;BME280;35029;50.804;12.866;2024-03-08T08:56:14;97820.81;;;5.07;77.25
49194;BME280;35029;50.804;12.866;2024-03-08T08:58:44;97823.91;;;5.03;79.22
49194;BME280;35029;50.804;12.866;2024-03-08T09:01:10;97834.72;;;5.00;78.30
49194;BME280;35029;50.804;12.866;2024-03-08T09:03:38;97806.81;;;4.99;78.87
49194;BME280;35029;50.804;12.866;2024-03-08T09:06:08;97802.59;;;5.06;77.66
49194;BME280;35029;50.804;12.866;2024-03-08T09:08:37;97813.97;;;5.31;78.64
49194;BME280;35029;50.804;12.866;2024-03-08T09:11:03;97804.63;;;5.37;78.06
49194;BME280;35029;50.804;12.866;2024-03-08T09:13:29;97824.38;;;5.49;76.30
49194;BME280;35029;50.804;12.866;2024-03-08T09:15:57;97820.44;;;5.62;75.51
49194;BME280;35029;50.804;12.866;2024-03-08T09:18:23;97809.13;;;5.69;75.46
49194;BME280;35029;50.804;12.866;2024-03-08T09:20:49;97811.44;;;5.81;76.96
49194;BME280;35029;50.804;12.866;2024-03-08T09:23:15;97815.88;;;5.64;75.18
49194;BME280;35029;50.804;12.866;2024-03-08T09:25:42;97805.38;;;5.80;77.91
49194;BME280;35029;50.804;12.866;2024-03-08T09:28:09;97808.00;;;5.72;73.20
49194;BME280;35029;50.804;12.866;2024-03-08T09:30:38;97805.38;;;5.97;76.97
49194;BME280;35029;50.804;12.866;2024-03-08T09:33:05;97796.53;;;6.14;77.01
49194;BME280;35029;50.804;12.866;2024-03-08T09:35:31;97800.47;;;6.26;78.71
49194;BME280;35029;50.804;12.866;2024-03-08T09:37:57;97800.94;;;6.38;79.35
49194;BME280;35029;50.804;12.866;2024-03-08T09:40:23;97796.47;;;6.47;77.64
49194;BME280;35029;50.804;12.866;2024-03-08T09:42:50;97797.13;;;6.57;77.11
49194;BME280;35029;50.804;12.866;2024-03-08T09:45:20;97802.19;;;6.67;76.14
49194;BME280;35029;50.804;12.866;2024-03-08T09:47:47;97793.63;;;6.65;70.11
49194;BME280;35029;50.804;12.866;2024-03-08T09:50:14;97783.59;;;6.69;66.66
49194;BME280;35029;50.804;12.866;2024-03-08T09:52:43;97788.34;;;6.82;70.92
49194;BME280;35029;50.804;12.866;2024-03-08T09:55:11;97785.66;;;6.90;68.14
49194;BME280;35029;50.804;12.866;2024-03-08T09:57:37;97773.41;;;7.05;68.65
49194;BME280;35029;50.804;12.866;2024-03-08T10:00:06;97773.00;;;7.17;70.00
49194;BME280;35029;50.804;12.866;2024-03-08T10:02:46;97775.28;;;7.20;67.78
49194;BME280;35029;50.804;12.866;2024-03-08T10:05:13;97770.19;;;7.18;67.39
49194;BME280;35029;50.804;12.866;2024-03-08T10:07:39;97760.63;;;7.25;68.58
49194;BME280;35029;50.804;12.866;2024-03-08T10:10:07;97755.75;;;7.37;67.67
49194;BME280;35029;50.804;12.866;2024-03-08T10:12:36;97761.56;;;7.56;68.09
49194;BME280;35029;50.804;12.866;2024-03-08T10:15:02;97760.03;;;7.61;68.19
49194;BME280;35029;50.804;12.866;2024-03-08T10:17:28;97757.53;;;7.68;65.90
49194;BME280;35029;50.804;12.866;2024-03-08T10:19:57;97751.06;;;7.71;65.47
49194;BME280;35029;50.804;12.866;2024-03-08T10:22:25;97753.72;;;7.71;64.83
49194;BME280;35029;50.804;12.866;2024-03-08T10:24:51;97749.38;;;7.78;66.81
49194;BME280;35029;50.804;12.866;2024-03-08T10:27:17;97743.03;;;7.87;65.38
49194;BME280;35029;50.804;12.866;2024-03-08T10:29:42;97746.16;;;7.91;63.52
49194;BME280;35029;50.804;12.866;2024-03-08T10:32:09;97736.47;;;7.83;62.32
49194;BME280;35029;50.804;12.866;2024-03-08T10:34:35;97744.59;;;7.97;61.76
49194;BME280;35029;50.804;12.866;2024-03-08T10:37:05;97745.34;;;8.05;61.92
49194;BME280;35029;50.804;12.866;2024-03-08T10:39:36;97739.44;;;8.03;60.41
49194;BME280;35029;50.804;12.866;2024-03-08T10:42:05;97716.78;;;8.09;62.69
49194;BME280;35029;50.804;12.866;2024-03-08T10:44:53;97741.94;;;8.35;63.02
49194;BME280;35029;50.804;12.866;2024-03-08T10:47:42;97736.50;;;8.51;60.47
49194;BME280;35029;50.804;12.866;2024-03-08T10:50:18;97739.06;;;8.59;58.70
49194;BME280;35029;50.804;12.866;2024-03-08T10:52:51;97728.56;;;8.51;59.86
49194;BME280;35029;50.804;12.866;2024-03-08T10:55:20;97731.41;;;8.65;60.72
49194;BME280;35029;50.804;12.866;2024-03-08T10:57:47;97725.66;;;8.76;60.26
49194;BME280;35029;50.804;12.866;2024-03-08T11:00:13;97724.38;;;8.72;57.88
49194;BME280;35029;50.804;12.866;2024-03-08T11:02:45;97727.81;;;8.87;59.33
49194;BME280;35029;50.804;12.866;2024-03-08T11:05:31;97718.97;;;8.95;60.72
49194;BME280;35029;50.804;12.866;2024-03-08T11:08:02;97719.31;;;9.07;58.90
49194;BME280;35029;50.804;12.866;2024-03-08T11:10:29;97716.91;;;9.12;58.48
49194;BME280;35029;50.804;12.866;2024-03-08T11:13:04;97707.72;;;9.08;57.97
49194;BME280;35029;50.804;12.866;2024-03-08T11:19:55;97701.72;;;9.36;56.27
49194;BME280;35029;50.804;12.866;2024-03-08T11:22:38;97698.94;;;9.44;57.65
49194;BME280;35029;50.804;12.866;2024-03-08T11:25:09;97695.91;;;9.47;57.17
49194;BME280;35029;50.804;12.866;2024-03-08T11:27:38;97696.16;;;9.52;56.29
49194;BME280;35029;50.804;12.866;2024-03-08T11:30:06;97684.63;;;9.38;54.27
49194;BME280;35029;50.804;12.866;2024-03-08T11:32:38;97682.53;;;9.55;55.79
49194;BME280;35029;50.804;12.866;2024-03-08T11:35:07;97681.88;;;9.46;55.96
49194;BME280;35029;50.804;12.866;2024-03-08T11:37:44;97674.06;;;9.60;56.20
49194;BME280;35029;50.804;12.866;2024-03-08T11:40:14;97673.91;;;9.68;54.16
49194;BME280;35029;50.804;12.866;2024-03-08T11:42:50;97669.16;;;9.85;54.34
49194;BME280;35029;50.804;12.866;2024-03-08T11:45:20;97661.66;;;9.89;54.28
49194;BME280;35029;50.804;12.866;2024-03-08T11:47:50;97656.09;;;10.12;55.32
49194;BME280;35029;50.804;12.866;2024-03-08T11:50:16;97652.81;;;10.10;55.07
49194;BME280;35029;50.804;12.866;2024-03-08T11:52:43;97646.53;;;10.18;54.18
49194;BME280;35029;50.804;12.866;2024-03-08T11:55:11;97644.94;;;10.23;54.00
49194;BME280;35029;50.804;12.866;2024-03-08T11:57:38;97647.63;;;10.30;54.46
49194;BME280;35029;50.804;12.866;2024-03-08T12:00:04;97639.75;;;10.37;53.78
49194;BME280;35029;50.804;12.866;2024-03-08T12:02:35;97641.84;;;10.48;54.05
49194;BME280;35029;50.804;12.866;2024-03-08T12:05:04;97630.00;;;10.44;54.46
49194;BME280;35029;50.804;12.866;2024-03-08T12:07:35;97633.47;;;10.51;53.13
49194;BME280;35029;50.804;12.866;2024-03-08T12:10:15;97638.19;;;10.49;50.42
49194;BME280;35029;50.804;12.866;2024-03-08T12:12:49;97635.78;;;10.61;50.75
49194;BME280;35029;50.804;12.866;2024-03-08T12:15:17;97614.72;;;10.46;50.06
49194;BME280;35029;50.804;12.866;2024-03-08T12:17:44;97621.06;;;10.52;49.87
49194;BME280;35029;50.804;12.866;2024-03-08T12:20:15;97613.94;;;10.59;50.29
49194;BME280;35029;50.804;12.866;2024-03-08T12:22:45;97616.63;;;10.65;50.17
49194;BME280;35029;50.804;12.866;2024-03-08T12:25:34;97623.16;;;10.70;50.44
49194;BME280;35029;50.804;12.866;2024-03-08T12:28:11;97601.72;;;10.64;49.91
49194;BME280;35029;50.804;12.866;2024-03-08T12:31:14;97614.44;;;10.76;49.00
49194;BME280;35029;50.804;12.866;2024-03-08T12:34:08;97618.94;;;10.95;51.84
49194;BME280;35029;50.804;12.866;2024-03-08T12:39:32;97582.41;;;10.84;50.30
49194;BME280;35029;50.804;12.866;2024-03-08T12:41:58;97589.56;;;10.97;49.70
49194;BME280;35029;50.804;12.866;2024-03-08T12:45:06;97594.28;;;11.02;49.57
49194;BME280;35029;50.804;12.866;2024-03-08T12:47:59;97586.13;;;10.96;48.79
49194;BME280;35029;50.804;12.866;2024-03-08T12:50:25;97577.31;;;10.96;49.47
49194;BME280;35029;50.804;12.866;2024-03-08T12:52:51;97578.19;;;11.03;49.10
49194;BME280;35029;50.804;12.866;2024-03-08T12:59:04;97577.53;;;10.94;49.83
49194;BME280;35029;50.804;12.866;2024-03-08T13:01:41;97561.41;;;10.76;49.64
49194;BME280;35029;50.804;12.866;2024-03-08T13:04:53;97568.53;;;10.82;50.12
49194;BME280;35029;50.804;12.866;2024-03-08T13:07:24;97549.38;;;10.80;51.31